Time;durP1;ratioP1;P1;durP2;ratioP2;P2;SDS_P1;SDS_P2;PMS_P1;PMS_P2;Temp;Humidity;BMP_temperature;BMP_pressure;BME280_temperature;BME280_humidity;BME280_pressure;Samples;Min_cycle;Max_cycle;Signal;HPM_P1;HPM_P2
2023/09/23 00:01:47;;;;;;;;;1.00;1.00;;;;;16.57;100.00;100911.84;5064221;28;49368;-75
2023/09/23 00:04:12;;;;;;;;;1.00;1.00;;;;;16.56;100.00;100914.50;5055530;28;50226;-75
2023/09/23 00:06:37;;;;;;;;;4.00;2.67;;;;;16.53;100.00;100915.44;5052741;28;63636;-75
2023/09/23 00:09:04;;;;;;;;;1.67;1.67;;;;;16.53;100.00;100920.78;5050289;28;67462;-76
2023/09/23 00:11:29;;;;;;;;;5.33;2.00;;;;;16.50;100.00;100923.47;5055163;28;45528;-75
2023/09/23 00:13:55;;;;;;;;;2.67;2.67;;;;;16.48;100.00;100928.81;5054961;28;45247;-75
2023/09/23 00:16:21;;;;;;;;;2.00;2.00;;;;;16.47;100.00;100926.19;5055130;28;47675;-75
2023/09/23 00:18:48;;;;;;;;;3.67;3.00;;;;;16.44;100.00;100929.75;5055965;28;48147;-75
2023/09/23 00:21:13;;;;;;;;;3.67;3.00;;;;;16.43;100.00;100921.78;5058837;28;45311;-76
2023/09/23 00:23:39;;;;;;;;;3.67;3.00;;;;;16.45;100.00;100935.97;5058177;28;64872;-75
2023/09/23 00:26:06;;;;;;;;;2.00;2.00;;;;;16.46;100.00;100937.75;5058671;28;45425;-75
2023/09/23 00:28:32;;;;;;;;;4.00;4.00;;;;;16.42;100.00;100931.56;5057644;28;45358;-75
2023/09/23 00:31:11;;;;;;;;;6.67;4.00;;;;;16.42;100.00;100944.88;5058225;28;45332;-75
2023/09/23 00:33:37;;;;;;;;;4.00;3.00;;;;;16.42;100.00;100947.56;5059057;28;45422;-75
2023/09/23 00:36:04;;;;;;;;;3.00;2.33;;;;;16.41;100.00;100952.91;5057808;28;45761;-75
2023/09/23 00:38:30;;;;;;;;;4.67;3.67;;;;;16.39;100.00;100950.22;5055938;28;46132;-75
2023/09/23 00:40:57;;;;;;;;;4.00;4.00;;;;;16.39;100.00;100952.91;5058222;28;45238;-75
2023/09/23 00:43:23;;;;;;;;;3.00;3.00;;;;;16.35;100.00;100951.19;5053858;28;45289;-75
2023/09/23 00:45:48;;;;;;;;;5.00;3.00;;;;;16.36;100.00;100957.41;5054845;28;45342;-74
2023/09/23 00:48:20;;;;;;;;;3.00;3.00;;;;;16.34;100.00;100954.72;5057199;28;48324;-75
2023/09/23 00:50:47;;;;;;;;;3.00;1.33;;;;;16.37;100.00;100952.03;5058282;28;45458;-75
2023/09/23 00:53:13;;;;;;;;;5.67;3.00;;;;;16.39;100.00;100946.69;5054757;28;45879;-75
2023/09/23 00:55:46;;;;;;;;;2.00;2.00;;;;;16.38;100.00;100945.81;5054434;28;62097;-75
2023/09/23 00:58:15;;;;;;;;;1.33;1.33;;;;;16.40;100.00;100945.78;5058071;28;46597;-75
2023/09/23 01:00:43;;;;;;;;;2.00;2.00;;;;;16.39;100.00;100947.56;5058500;28;45407;-75
2023/09/23 01:03:09;;;;;;;;;5.00;2.00;;;;;16.38;100.00;100951.13;5057277;28;45679;-75
2023/09/23 01:05:35;;;;;;;;;1.67;1.67;;;;;16.38;100.00;100961.81;5058181;28;45415;-76
2023/09/23 01:08:02;;;;;;;;;3.00;1.00;;;;;16.36;100.00;100963.63;5057084;28;46449;-75
2023/09/23 01:10:28;;;;;;;;;2.33;2.00;;;;;16.37;100.00;100959.16;5057445;28;45248;-75
2023/09/23 01:12:53;;;;;;;;;5.00;2.00;;;;;16.37;100.00;100961.81;5053592;28;45288;-75
2023/09/23 01:15:20;;;;;;;;;1.00;1.00;;;;;16.36;100.00;100958.28;5057309;28;45291;-75
2023/09/23 01:17:48;;;;;;;;;2.00;2.00;;;;;16.36;100.00;100960.94;5052081;28;47562;-75
2023/09/23 01:20:14;;;;;;;;;3.00;1.67;;;;;16.35;100.00;100974.25;5057082;28;45347;-75
2023/09/23 01:22:40;;;;;;;;;3.67;2.00;;;;;16.36;100.00;100968.94;5050524;28;45303;-74
2023/09/23 01:25:06;;;;;;;;;1.33;1.00;;;;;16.40;100.00;100967.97;5057576;28;45298;-75
2023/09/23 01:27:34;;;;;;;;;2.67;1.00;;;;;16.43;100.00;100969.75;5057356;28;47880;-75
2023/09/23 01:30:04;;;;;;;;;2.00;2.00;;;;;16.43;100.00;100965.28;5054269;28;45451;-75
2023/09/23 01:32:45;;;;;;;;;5.00;0.67;;;;;16.41;100.00;100968.91;5056737;28;45563;-75
2023/09/23 01:35:11;;;;;;;;;1.00;1.00;;;;;16.39;100.00;100968.88;5053621;28;45430;-75
2023/09/23 01:37:37;;;;;;;;;1.00;1.00;;;;;16.37;100.00;100962.72;5057646;28;47581;-75
2023/09/23 01:40:05;;;;;;;;;2.67;1.00;;;;;16.33;100.00;100970.75;5057521;28;45407;-75
2023/09/23 01:42:35;;;;;;;;;1.00;1.00;;;;;16.28;100.00;100973.44;5055266;28;45358;-75
2023/09/23 01:45:03;;;;;;;;;2.33;1.00;;;;;16.26;100.00;100969.94;5056988;28;45347;-75
2023/09/23 01:47:29;;;;;;;;;0.00;0.00;;;;;16.27;100.00;100978.81;5056837;28;46498;-75
2023/09/23 01:49:54;;;;;;;;;1.00;1.00;;;;;16.22;100.00;100974.41;5053991;28;45140;-75
2023/09/23 01:52:19;;;;;;;;;3.33;1.00;;;;;16.21;100.00;100985.97;5056882;28;63208;-75
2023/09/23 01:54:46;;;;;;;;;1.00;1.00;;;;;16.20;100.00;100981.53;5057178;28;45500;-75
2023/09/23 01:57:16;;;;;;;;;5.00;2.00;;;;;16.15;100.00;100985.16;5057857;28;47663;-75
2023/09/23 01:59:45;;;;;;;;;1.00;1.00;;;;;16.12;100.00;100991.38;5056802;28;46742;-75
2023/09/23 02:02:10;;;;;;;;;2.33;1.00;;;;;16.12;100.00;100983.38;5057076;28;45444;-75
2023/09/23 02:04:37;;;;;;;;;1.67;1.00;;;;;16.12;100.00;100994.03;5055938;28;45424;-75
2023/09/23 02:07:03;;;;;;;;;1.00;1.00;;;;;16.15;100.00;100996.69;5055132;28;46558;-75
2023/09/23 02:09:29;;;;;;;;;2.33;1.00;;;;;16.18;100.00;101001.06;5056928;28;45495;-75
2023/09/23 02:11:54;;;;;;;;;3.00;1.00;;;;;16.12;100.00;100999.34;5057028;28;47357;-75
2023/09/23 02:14:19;;;;;;;;;3.00;1.00;;;;;16.16;100.00;101005.56;5057438;28;45371;-76
2023/09/23 02:16:47;;;;;;;;;1.00;1.00;;;;;16.09;100.00;101006.50;5055546;28;69607;-75
2023/09/23 02:19:13;;;;;;;;;2.33;1.00;;;;;16.07;100.00;101003.84;5054870;28;45482;-75
2023/09/23 02:21:38;;;;;;;;;3.67;1.67;;;;;16.08;100.00;101013.59;5051933;28;45503;-75
2023/09/23 02:24:04;;;;;;;;;3.00;2.00;;;;;16.04;100.00;101011.00;5057105;28;45544;-75
2023/09/23 02:26:29;;;;;;;;;1.67;1.67;;;;;16.02;100.00;101021.63;5056966;28;47384;-75
2023/09/23 02:28:55;;;;;;;;;1.00;0.67;;;;;16.00;100.00;101022.56;5056510;28;45395;-74
2023/09/23 02:31:20;;;;;;;;;3.33;1.00;;;;;15.96;100.00;101022.56;5055932;28;61295;-75
2023/09/23 02:33:46;;;;;;;;;3.00;1.00;;;;;15.93;100.00;101032.38;5056714;28;58668;-75
2023/09/23 02:36:14;;;;;;;;;1.00;1.00;;;;;15.94;100.00;101034.16;5052996;28;47730;-75
2023/09/23 02:38:42;;;;;;;;;2.67;1.00;;;;;15.92;100.00;101038.59;5057006;28;45556;-75
2023/09/23 02:41:07;;;;;;;;;5.00;1.00;;;;;15.93;100.00;101033.28;5056293;28;45560;-75
2023/09/23 02:43:33;;;;;;;;;2.00;2.00;;;;;15.88;100.00;101035.09;5056053;28;45551;-75
2023/09/23 02:46:00;;;;;;;;;2.00;0.00;;;;;15.90;100.00;101043.94;5053963;28;66415;-74
2023/09/23 02:48:26;;;;;;;;;0.00;0.00;;;;;15.88;100.00;101042.19;5054764;28;45419;-75
2023/09/23 02:50:51;;;;;;;;;1.67;0.67;;;;;15.83;100.00;101044.00;5054710;28;45692;-74
2023/09/23 02:53:17;;;;;;;;;2.33;0.00;;;;;15.79;100.00;101050.25;5053410;28;45533;-75
2023/09/23 02:55:51;;;;;;;;;1.00;1.00;;;;;15.76;100.00;101047.59;5055965;28;58283;-75
2023/09/23 02:58:21;;;;;;;;;2.33;1.00;;;;;15.73;100.00;101055.59;5047958;28;45686;-75
2023/09/23 03:00:57;;;;;;;;;0.00;0.00;;;;;15.67;100.00;101046.78;5049671;28;45367;-75
2023/09/23 03:03:23;;;;;;;;;0.67;0.67;;;;;15.65;100.00;101052.97;5049955;28;45524;-75
2023/09/23 03:05:54;;;;;;;;;0.00;0.00;;;;;15.61;100.00;101052.09;5054840;28;47582;-75
2023/09/23 03:08:22;;;;;;;;;1.00;1.00;;;;;15.63;100.00;101052.13;5052323;28;45383;-75
2023/09/23 03:10:49;;;;;;;;;2.00;1.00;;;;;15.62;100.00;101056.53;5055951;28;46721;-75
2023/09/23 03:13:15;;;;;;;;;1.00;1.00;;;;;15.59;100.00;101067.19;5056347;28;45563;-75
2023/09/23 03:15:48;;;;;;;;;1.00;0.00;;;;;15.54;100.00;101071.63;5055465;28;47596;-75
2023/09/23 03:18:14;;;;;;;;;2.67;0.00;;;;;15.55;100.00;101064.53;5052831;27;45217;-75
2023/09/23 03:20:40;;;;;;;;;0.00;0.00;;;;;15.54;100.00;101076.09;5053514;28;45475;-75
2023/09/23 03:23:09;;;;;;;;;3.00;1.00;;;;;15.50;100.00;101075.25;5053383;28;45637;-74
2023/09/23 03:25:42;;;;;;;;;2.00;1.00;;;;;15.50;100.00;101082.31;5052857;28;46435;-75
2023/09/23 03:28:07;;;;;;;;;0.00;0.00;;;;;15.50;100.00;101088.53;5051389;28;45453;-74
2023/09/23 03:30:33;;;;;;;;;1.67;0.00;;;;;15.50;100.00;101085.88;5049452;28;62732;-75
2023/09/23 03:32:59;;;;;;;;;0.00;0.00;;;;;15.55;100.00;101085.81;5048048;28;45390;-75
2023/09/23 03:35:24;;;;;;;;;0.00;0.00;;;;;15.54;100.00;101094.72;5050402;28;47994;-75
2023/09/23 03:37:50;;;;;;;;;0.00;0.00;;;;;15.53;100.00;101092.94;5055592;28;45413;-75
2023/09/23 03:40:20;;;;;;;;;0.67;0.00;;;;;15.51;100.00;101090.31;5050516;28;45247;-75
2023/09/23 03:42:47;;;;;;;;;0.00;0.00;;;;;15.49;100.00;101102.72;5054829;28;45279;-75
2023/09/23 03:45:12;;;;;;;;;2.67;1.00;;;;;15.49;100.00;101102.72;5055310;28;46522;-75
2023/09/23 03:47:38;;;;;;;;;1.00;1.00;;;;;15.42;100.00;101101.88;5053693;28;45426;-75
2023/09/23 03:50:04;;;;;;;;;0.67;0.00;;;;;15.41;100.00;101112.53;5053321;28;46156;-76
2023/09/23 03:52:29;;;;;;;;;2.00;1.00;;;;;15.42;100.00;101114.28;5056176;28;46402;-75
2023/09/23 03:54:57;;;;;;;;;2.00;0.33;;;;;15.44;100.00;101112.50;5054648;28;47388;-75
2023/09/23 03:57:22;;;;;;;;;1.00;0.00;;;;;15.45;100.00;101116.94;5060340;28;45365;-75
2023/09/23 03:59:49;;;;;;;;;0.00;0.00;;;;;15.48;100.00;101114.25;5061301;28;45441;-75
2023/09/23 04:02:14;;;;;;;;;0.00;0.00;;;;;15.44;100.00;101104.50;5061844;28;45503;-75
2023/09/23 04:04:39;;;;;;;;;2.00;0.00;;;;;15.45;100.00;101111.63;5061304;28;47425;-75
2023/09/23 04:07:07;;;;;;;;;1.00;1.00;;;;;15.43;100.00;101122.25;5061077;28;65368;-75
2023/09/23 04:09:33;;;;;;;;;2.00;0.00;;;;;15.42;100.00;101115.16;5060083;28;45685;-75
2023/09/23 04:12:00;;;;;;;;;0.00;0.00;;;;;15.38;100.00;101116.06;5061599;28;45268;-75
2023/09/23 04:14:26;;;;;;;;;0.00;0.00;;;;;15.40;100.00;101126.72;5052492;28;46362;-75
2023/09/23 04:16:52;;;;;;;;;1.00;1.00;;;;;15.39;100.00;101120.53;5056567;28;45478;-75
2023/09/23 04:19:18;;;;;;;;;5.00;0.00;;;;;15.37;100.00;101118.75;5059438;28;46833;-75
2023/09/23 04:21:43;;;;;;;;;0.00;0.00;;;;;15.33;100.00;101115.19;5061851;28;45473;-75
2023/09/23 04:24:09;;;;;;;;;2.00;1.00;;;;;15.34;100.00;101122.31;5060157;28;45492;-75
2023/09/23 04:26:34;;;;;;;;;0.00;0.00;;;;;15.31;100.00;101118.78;5059955;28;68989;-75
2023/09/23 04:28:59;;;;;;;;;3.00;0.00;;;;;15.28;100.00;101124.97;5056046;28;67553;-75
2023/09/23 04:31:25;;;;;;;;;1.00;0.00;;;;;15.28;100.00;101132.97;5055046;28;65328;-75
2023/09/23 04:33:51;;;;;;;;;1.67;0.00;;;;;15.30;100.00;101140.97;5060683;28;46891;-74
2023/09/23 04:36:17;;;;;;;;;2.67;1.00;;;;;15.26;100.00;101136.53;5058657;28;45378;-75
2023/09/23 04:38:45;;;;;;;;;1.00;1.00;;;;;15.29;100.00;101155.16;5056161;28;45466;-75
2023/09/23 04:41:10;;;;;;;;;2.00;0.00;;;;;15.26;100.00;101149.81;5057806;28;45522;-75
2023/09/23 04:43:36;;;;;;;;;1.00;0.00;;;;;15.26;100.00;101150.72;5054778;28;47174;-75
2023/09/23 04:46:02;;;;;;;;;2.00;1.00;;;;;15.25;100.00;101159.59;5060189;28;45527;-75
2023/09/23 04:48:30;;;;;;;;;0.00;0.00;;;;;15.26;100.00;101164.00;5060297;28;45472;-75
2023/09/23 04:50:56;;;;;;;;;0.00;0.00;;;;;15.26;100.00;101164.00;5060987;28;45480;-75
2023/09/23 04:53:22;;;;;;;;;1.00;1.00;;;;;15.25;100.00;101164.03;5061675;28;47366;-75
2023/09/23 04:55:47;;;;;;;;;0.00;0.00;;;;;15.23;100.00;101163.13;5055358;28;45336;-75
2023/09/23 04:58:13;;;;;;;;;0.67;0.67;;;;;15.23;100.00;101160.47;5058002;28;64669;-75
2023/09/23 05:00:38;;;;;;;;;1.67;0.00;;;;;15.23;100.00;101169.31;5057415;28;45508;-75
2023/09/23 05:03:05;;;;;;;;;1.67;0.00;;;;;15.16;100.00;101171.13;5061936;28;46565;-75
2023/09/23 05:05:31;;;;;;;;;2.00;0.00;;;;;15.14;100.00;101180.91;5059546;28;45465;-75
2023/09/23 05:07:56;;;;;;;;;1.00;0.00;;;;;15.15;100.00;101177.34;5058216;28;45462;-75
2023/09/23 05:10:23;;;;;;;;;0.00;0.00;;;;;15.11;100.00;101178.22;5058160;28;59038;-75
2023/09/23 05:12:48;;;;;;;;;2.33;0.00;;;;;15.11;100.00;101188.88;5058613;28;46336;-74
2023/09/23 05:15:15;;;;;;;;;1.33;0.00;;;;;15.12;100.00;101187.09;5058700;28;45212;-75
2023/09/23 05:17:42;;;;;;;;;2.00;0.00;;;;;15.10;100.00;101195.09;5059038;28;45430;-75
2023/09/23 05:20:19;;;;;;;;;1.00;1.00;;;;;15.08;100.00;101193.31;5059287;28;45474;-75
2023/09/23 05:22:44;;;;;;;;;2.00;0.00;;;;;15.06;100.00;101201.28;5046927;28;47154;-75
2023/09/23 05:25:11;;;;;;;;;0.00;0.00;;;;;15.07;100.00;101203.06;5056410;28;69755;-75
2023/09/23 05:27:38;;;;;;;;;0.67;0.00;;;;;15.02;100.00;101210.19;5058786;28;45452;-75
2023/09/23 05:30:05;;;;;;;;;2.00;1.00;;;;;15.01;100.00;101205.72;5055108;28;45426;-75
2023/09/23 05:32:30;;;;;;;;;1.00;0.00;;;;;15.04;100.00;101218.16;5058031;28;47380;-75
2023/09/23 05:34:55;;;;;;;;;1.00;1.00;;;;;15.02;100.00;101220.81;5051984;28;56287;-75
2023/09/23 05:37:22;;;;;;;;;1.00;0.00;;;;;15.03;100.00;101230.56;5052663;28;45429;-75
2023/09/23 05:39:47;;;;;;;;;4.00;1.00;;;;;15.03;100.00;101233.22;5057338;28;45445;-74
2023/09/23 05:42:13;;;;;;;;;2.00;0.00;;;;;15.02;100.00;101243.84;5057252;28;47274;-75
2023/09/23 05:44:40;;;;;;;;;0.33;0.33;;;;;15.02;100.00;101238.53;5056902;28;45373;-75
2023/09/23 05:47:05;;;;;;;;;0.00;0.00;;;;;15.02;100.00;101242.09;5057529;28;45282;-75
2023/09/23 05:49:30;;;;;;;;;2.00;0.00;;;;;15.01;100.00;101244.72;5056311;28;45499;-75
2023/09/23 05:51:56;;;;;;;;;2.00;0.00;;;;;15.06;100.00;101253.59;5057161;28;47465;-75
2023/09/23 05:54:23;;;;;;;;;0.00;0.00;;;;;15.07;100.00;101248.25;5055197;28;45466;-74
2023/09/23 05:56:48;;;;;;;;;2.00;0.00;;;;;15.05;100.00;101250.06;5056150;28;45443;-75
2023/09/23 05:59:15;;;;;;;;;4.67;0.67;;;;;15.06;100.00;101256.25;5051718;28;45354;-75
2023/09/23 06:01:41;;;;;;;;;0.67;0.67;;;;;15.05;100.00;101258.03;5050068;28;47401;-74
2023/09/23 06:04:09;;;;;;;;;1.00;1.00;;;;;15.06;100.00;101264.22;5055044;28;45421;-75
2023/09/23 06:06:37;;;;;;;;;1.33;1.00;;;;;15.05;100.00;101267.78;5052681;28;45470;-75
2023/09/23 06:09:04;;;;;;;;;1.33;0.00;;;;;15.01;100.00;101269.56;5053349;28;45581;-75
2023/09/23 06:11:30;;;;;;;;;2.00;1.00;;;;;14.96;100.00;101276.63;5049980;28;46903;-75
2023/09/23 06:13:55;;;;;;;;;2.33;0.00;;;;;14.97;100.00;101288.16;5050349;28;45500;-75
2023/09/23 06:16:20;;;;;;;;;0.00;0.00;;;;;14.99;100.00;101289.94;5045394;28;45703;-75
2023/09/23 06:18:46;;;;;;;;;5.67;1.00;;;;;15.02;100.00;101291.72;5055440;28;45464;-75
2023/09/23 06:21:11;;;;;;;;;1.00;1.00;;;;;15.05;100.00;101299.69;5056493;28;46569;-75
2023/09/23 06:23:36;;;;;;;;;4.00;1.00;;;;;15.05;100.00;101292.59;5056160;28;45499;-75
2023/09/23 06:26:04;;;;;;;;;0.67;0.67;;;;;15.14;100.00;101303.25;5056358;28;46490;-75
2023/09/23 06:28:29;;;;;;;;;1.00;1.00;;;;;15.15;100.00;101305.03;5056375;28;45310;-75
2023/09/23 06:30:55;;;;;;;;;3.00;1.00;;;;;15.19;100.00;101309.47;5056081;28;47027;-74
2023/09/23 06:33:21;;;;;;;;;3.00;0.00;;;;;15.20;100.00;101310.34;5054705;28;45474;-75
2023/09/23 06:35:48;;;;;;;;;1.33;0.00;;;;;15.22;100.00;101315.66;5053766;28;45351;-75
2023/09/23 06:38:13;;;;;;;;;0.00;0.00;;;;;15.25;100.00;101321.00;5054425;28;45548;-76
2023/09/23 06:40:38;;;;;;;;;2.67;0.00;;;;;15.29;100.00;101318.34;5056749;28;46432;-76
2023/09/23 06:43:04;;;;;;;;;1.00;1.00;;;;;15.33;100.00;101329.84;5045519;28;68736;-76
2023/09/23 06:45:29;;;;;;;;;2.00;0.33;;;;;15.35;100.00;101328.06;5054851;28;45474;-76
2023/09/23 06:47:55;;;;;;;;;1.00;1.00;;;;;15.41;100.00;101336.06;5050265;28;45489;-76
2023/09/23 06:50:21;;;;;;;;;3.00;2.00;;;;;15.43;100.00;101334.25;5048982;28;67059;-75
2023/09/23 06:52:46;;;;;;;;;4.33;2.00;;;;;15.48;100.00;101339.59;5051645;28;45494;-75
2023/09/23 06:55:11;;;;;;;;;6.00;2.00;;;;;15.46;100.00;101328.94;5048359;28;45478;-76
2023/09/23 06:57:37;;;;;;;;;2.33;1.00;;;;;15.48;100.00;101334.25;5053706;28;63260;-75
2023/09/23 07:00:07;;;;;;;;;2.33;0.00;;;;;15.51;100.00;101334.28;5053994;28;49692;-75
2023/09/23 07:02:36;;;;;;;;;2.00;1.00;;;;;15.53;100.00;101338.69;5046405;28;45609;-75
2023/09/23 07:05:01;;;;;;;;;1.33;1.00;;;;;15.58;100.00;101347.56;5051575;28;45465;-75
2023/09/23 07:07:27;;;;;;;;;4.00;1.00;;;;;15.61;100.00;101350.22;5049092;28;45525;-79
2023/09/23 07:09:53;;;;;;;;;1.00;1.00;;;;;15.61;100.00;101350.22;5045556;28;47300;-75
2023/09/23 07:12:18;;;;;;;;;2.00;1.00;;;;;15.65;100.00;101359.13;5045633;28;45497;-76
2023/09/23 07:14:43;;;;;;;;;2.67;1.00;;;;;15.62;100.00;101365.31;5050686;28;46916;-76
2023/09/23 07:17:09;;;;;;;;;5.00;1.67;;;;;15.57;100.00;101360.88;5051496;28;45437;-74
2023/09/23 07:19:34;;;;;;;;;0.00;0.00;;;;;15.53;100.00;101367.09;5050670;28;71950;-76
2023/09/23 07:22:00;;;;;;;;;2.00;0.00;;;;;15.46;100.00;101363.56;5049172;28;46006;-76
2023/09/23 07:24:29;;;;;;;;;2.00;0.00;;;;;15.43;100.00;101369.75;5054127;28;45440;-77
2023/09/23 07:26:58;;;;;;;;;1.00;1.00;;;;;15.41;100.00;101379.50;5054530;28;45492;-75
2023/09/23 07:29:24;;;;;;;;;3.00;1.67;;;;;15.39;100.00;101388.38;5050428;28;46826;-77
2023/09/23 07:31:53;;;;;;;;;3.33;1.33;;;;;15.39;100.00;101391.94;5055540;28;45508;-77
2023/09/23 07:34:19;;;;;;;;;3.67;1.00;;;;;15.42;100.00;101399.03;5050988;28;45387;-76
2023/09/23 07:36:44;;;;;;;;;1.00;0.00;;;;;15.42;100.00;101399.91;5051826;28;45784;-75
2023/09/23 07:39:13;;;;;;;;;1.00;0.00;;;;;15.46;100.00;101403.47;5053577;28;48189;-76
2023/09/23 07:41:38;;;;;;;;;0.00;0.00;;;;;15.53;100.00;101404.34;5053196;28;45572;-78
2023/09/23 07:44:04;;;;;;;;;0.00;0.00;;;;;15.58;100.00;101408.78;5053216;28;45570;-78
2023/09/23 07:46:29;;;;;;;;;1.00;1.00;;;;;15.62;100.00;101405.25;5054993;28;45546;-77
2023/09/23 07:48:55;;;;;;;;;2.00;0.00;;;;;15.70;100.00;101408.78;5051306;28;47714;-76
2023/09/23 07:51:20;;;;;;;;;0.00;0.00;;;;;15.83;100.00;101416.81;5051034;28;45503;-75
2023/09/23 07:53:46;;;;;;;;;0.00;0.00;;;;;15.97;100.00;101417.66;5046930;28;45576;-76
2023/09/23 07:56:11;;;;;;;;;1.00;0.00;;;;;16.12;100.00;101424.72;5051283;28;63084;-75
2023/09/23 07:58:36;;;;;;;;;0.00;0.00;;;;;16.29;100.00;101422.00;5044926;28;67566;-75
2023/09/23 08:01:02;;;;;;;;;0.67;0.00;;;;;16.48;100.00;101434.41;5053040;28;65776;-75
2023/09/23 08:03:28;;;;;;;;;2.00;2.00;;;;;16.63;100.00;101429.00;5048454;28;45276;-74
2023/09/23 08:05:53;;;;;;;;;3.67;0.00;;;;;16.69;100.00;101428.97;5053935;28;45540;-75
2023/09/23 08:08:19;;;;;;;;;0.00;0.00;;;;;16.79;100.00;101435.19;5045138;28;53575;-75
2023/09/23 08:10:44;;;;;;;;;2.00;1.00;;;;;16.88;100.00;101428.91;5045037;28;45521;-75
2023/09/23 08:13:10;;;;;;;;;1.00;1.00;;;;;16.86;100.00;101436.91;5043378;28;45847;-75
2023/09/23 08:15:35;;;;;;;;;2.00;0.00;;;;;16.90;100.00;101440.47;5170568;22;61636;-76
2023/09/23 08:18:00;;;;;;;;;2.00;0.00;;;;;16.93;100.00;101454.66;5049338;28;62465;-76
2023/09/23 08:20:26;;;;;;;;;1.67;1.00;;;;;16.96;100.00;101454.66;5059588;28;53107;-76
2023/09/23 08:22:51;;;;;;;;;0.67;0.33;;;;;16.99;100.00;101467.06;5048776;28;45598;-75
2023/09/23 08:25:19;;;;;;;;;1.00;1.00;;;;;16.97;100.00;101463.53;5042509;28;46090;-76
2023/09/23 08:27:45;;;;;;;;;2.00;1.00;;;;;16.97;100.00;101475.09;5048553;28;46161;-76
2023/09/23 08:30:12;;;;;;;;;1.00;1.00;;;;;16.98;100.00;101473.31;5048539;28;45465;-76
2023/09/23 08:32:38;;;;;;;;;0.00;0.00;;;;;17.04;100.00;101473.28;5050822;28;45403;-78
2023/09/23 08:35:05;;;;;;;;;0.33;0.00;;;;;17.08;100.00;101480.38;5048808;28;45619;-77
2023/09/23 08:37:30;;;;;;;;;0.00;0.00;;;;;17.15;100.00;101486.56;5049800;28;46713;-77
2023/09/23 08:39:56;;;;;;;;;0.00;0.00;;;;;17.13;100.00;101485.69;5050480;28;45599;-75
2023/09/23 08:42:23;;;;;;;;;0.00;0.00;;;;;17.09;100.00;101497.25;5054012;28;45362;-76
2023/09/23 08:44:49;;;;;;;;;2.00;0.33;;;;;17.09;100.00;101500.81;5049604;28;45942;-79
2023/09/23 08:47:17;;;;;;;;;2.00;1.00;;;;;17.07;100.00;101493.72;5051651;28;65077;-78
2023/09/23 08:49:43;;;;;;;;;1.00;1.00;;;;;17.06;100.00;101489.28;5052098;28;45459;-78
2023/09/23 08:52:08;;;;;;;;;2.00;0.00;;;;;17.04;100.00;101499.94;5050493;28;45481;-78
2023/09/23 08:54:34;;;;;;;;;3.33;1.33;;;;;17.05;100.00;101508.88;5042883;28;61849;-77
2023/09/23 08:56:59;;;;;;;;;4.00;1.00;;;;;17.09;100.00;101516.81;5048160;28;69385;-76
2023/09/23 08:59:26;;;;;;;;;1.00;1.00;;;;;17.17;100.00;101511.47;5050380;28;46145;-76
2023/09/23 09:01:52;;;;;;;;;2.00;0.00;;;;;17.23;100.00;101509.66;5050553;28;45521;-76
2023/09/23 09:04:17;;;;;;;;;2.00;0.67;;;;;17.31;100.00;101522.06;5051323;28;62531;-76
2023/09/23 09:06:50;;;;;;;;;0.33;0.33;;;;;17.38;100.00;101516.69;5052901;28;45932;-76
2023/09/23 09:09:16;;;;;;;;;3.67;1.00;;;;;17.49;100.00;101519.28;5055843;28;45525;-76
2023/09/23 09:11:44;;;;;;;;;1.00;1.00;;;;;17.66;100.00;101519.16;5053153;28;45514;-76
2023/09/23 09:14:10;;;;;;;;;1.67;0.00;;;;;17.72;100.00;101512.03;5053705;28;45447;-76
2023/09/23 09:16:36;;;;;;;;;1.00;1.00;;;;;17.94;100.00;101514.53;5038548;28;47270;-76
2023/09/23 09:19:01;;;;;;;;;1.00;0.00;;;;;18.09;100.00;101513.50;5055405;28;46576;-76
2023/09/23 09:21:26;;;;;;;;;1.33;0.67;;;;;18.18;100.00;101510.75;5054772;28;68209;-77
2023/09/23 09:23:53;;;;;;;;;1.00;1.00;;;;;18.33;100.00;101515.97;5054096;28;45390;-77
2023/09/23 09:26:19;;;;;;;;;1.00;1.00;;;;;18.51;100.00;101509.53;5047751;28;47398;-76
2023/09/23 09:28:44;;;;;;;;;1.00;1.00;;;;;18.65;100.00;101518.28;5056430;28;45434;-76
2023/09/23 09:31:09;;;;;;;;;1.33;0.00;;;;;18.86;100.00;101510.94;5051053;28;63233;-76
2023/09/23 09:33:37;;;;;;;;;2.33;1.00;;;;;19.00;100.00;101509.84;5056582;28;63245;-76
2023/09/23 09:36:05;;;;;;;;;0.67;0.67;;;;;19.10;100.00;101510.63;5051989;28;46499;-76
2023/09/23 09:38:32;;;;;;;;;1.00;1.00;;;;;19.17;100.00;101509.63;5033863;28;45425;-76
2023/09/23 09:41:03;;;;;;;;;2.00;2.00;;;;;19.24;100.00;101497.94;5055089;28;50587;-76
2023/09/23 09:43:30;;;;;;;;;1.00;1.00;;;;;19.27;100.00;101503.22;5056029;28;45605;-76
2023/09/23 09:45:56;;;;;;;;;0.67;0.67;;;;;19.31;100.00;101496.94;5055047;28;46361;-76
2023/09/23 09:48:22;;;;;;;;;0.00;0.00;;;;;19.35;100.00;101501.34;5053763;28;45683;-75
2023/09/23 09:50:49;;;;;;;;;1.67;0.00;;;;;19.35;100.00;101504.03;5051548;28;46549;-78
2023/09/23 09:53:16;;;;;;;;;2.00;2.00;;;;;19.43;100.00;101506.56;5054320;28;63815;-76
2023/09/23 09:55:42;;;;;;;;;1.00;1.00;;;;;19.47;100.00;101502.06;5051016;28;46488;-76
2023/09/23 09:58:08;;;;;;;;;2.00;1.00;;;;;19.48;100.00;101509.19;5052678;28;67292;-77
2023/09/23 10:00:42;;;;;;;;;2.67;1.00;;;;;19.51;100.00;101514.50;5055301;28;54321;-78
2023/09/23 10:03:11;;;;;;;;;0.67;0.00;;;;;19.50;100.00;101499.34;5057126;28;45332;-77
2023/09/23 10:05:49;;;;;;;;;2.00;1.00;;;;;19.44;100.00;101494.97;5056567;28;46066;-75
2023/09/23 10:08:24;;;;;;;;;1.67;0.00;;;;;19.47;100.00;101515.47;5054537;28;45458;-76
2023/09/23 10:10:51;;;;;;;;;2.33;0.67;;;;;19.48;100.00;101510.06;5055692;28;45438;-76
2023/09/23 10:13:18;;;;;;;;;3.00;1.00;;;;;19.53;100.00;101508.22;5050530;28;45655;-77
2023/09/23 10:15:44;;;;;;;;;0.67;0.00;;;;;19.60;100.00;101511.72;5050878;28;46496;-77
2023/09/23 10:18:10;;;;;;;;;0.67;0.00;;;;;19.71;100.00;101516.91;5055108;28;45708;-78
2023/09/23 10:20:40;;;;;;;;;0.67;0.67;;;;;19.84;100.00;101519.38;5053686;28;45523;-77
2023/09/23 10:23:07;;;;;;;;;3.00;1.00;;;;;19.91;100.00;101513.91;5047934;28;45465;-76
2023/09/23 10:25:37;;;;;;;;;0.00;0.00;;;;;20.00;100.00;101517.31;5053043;28;45579;-75
2023/09/23 10:28:04;;;;;;;;;1.00;1.00;;;;;20.09;100.00;101518.97;5055766;28;45484;-76
2023/09/23 10:30:29;;;;;;;;;1.00;1.00;;;;;20.25;100.00;101523.16;5055399;28;45628;-78
2023/09/23 10:32:55;;;;;;;;;3.67;0.00;;;;;20.46;100.00;101523.66;5052455;28;45430;-76
2023/09/23 10:35:24;;;;;;;;;2.67;1.00;;;;;20.61;100.00;101524.28;5052434;28;45874;-75
2023/09/23 10:37:49;;;;;;;;;4.67;0.67;;;;;20.76;100.00;101527.56;5054331;28;64234;-77
2023/09/23 10:40:17;;;;;;;;;2.67;1.00;;;;;20.89;100.00;101521.06;5050780;28;45667;-78
2023/09/23 10:42:45;;;;;;;;;5.67;1.00;;;;;20.95;100.00;101520.91;5054359;28;45510;-77
2023/09/23 10:45:12;;;;;;;;;1.00;1.00;;;;;21.01;100.00;101514.53;5054829;28;46672;-76
2023/09/23 10:47:38;;;;;;;;;2.00;0.67;;;;;21.01;100.00;101525.28;5054491;28;45423;-76
2023/09/23 10:50:06;;;;;;;;;0.00;0.00;;;;;21.11;100.00;101522.34;5054671;28;45418;-77
2023/09/23 10:52:33;;;;;;;;;1.00;1.00;;;;;21.22;100.00;101519.44;5047890;28;45514;-76
2023/09/23 10:54:58;;;;;;;;;0.00;0.00;;;;;21.32;100.00;101521.03;5046005;28;45558;-78
2023/09/23 10:57:24;;;;;;;;;4.00;2.00;;;;;21.34;100.00;101526.38;5051004;28;45513;-76
2023/09/23 10:59:51;;;;;;;;;2.00;0.67;;;;;21.30;100.00;101519.28;5054006;28;45529;-76
2023/09/23 11:02:18;;;;;;;;;2.00;1.00;;;;;21.24;100.00;101525.66;5053203;28;45358;-76
2023/09/23 11:04:48;;;;;;;;;0.67;0.67;;;;;21.26;100.00;101533.69;5055961;28;45419;-76
2023/09/23 11:07:14;;;;;;;;;1.33;1.33;;;;;21.28;100.00;101527.34;5051651;28;45315;-78
2023/09/23 11:09:40;;;;;;;;;1.00;1.00;;;;;21.32;100.00;101533.59;5053942;28;45287;-76
2023/09/23 11:12:16;;;;;;;;;3.00;1.00;;;;;21.33;100.00;101529.97;5052884;28;45572;-77
2023/09/23 11:14:45;;;;;;;;;2.33;0.33;;;;;21.34;100.00;101532.63;5038614;28;46004;-77